createdAt,value
2018-12-23T00:01:17.623Z,8.90
2018-12-23T00:03:46.267Z,9.00
2018-12-23T00:06:16.063Z,8.90
2018-12-23T00:08:45.633Z,8.90
2018-12-23T00:11:16.215Z,8.80
2018-12-23T00:13:46.554Z,8.60
2018-12-23T00:16:16.291Z,8.60
2018-12-23T00:18:45.971Z,8.50
2018-12-23T00:21:16.327Z,8.50
2018-12-23T00:23:45.598Z,8.50
2018-12-23T00:26:14.206Z,8.50
2018-12-23T00:28:45.835Z,8.40
2018-12-23T00:31:14.461Z,8.30
2018-12-23T00:33:43.456Z,8.20
2018-12-23T00:39:08.506Z,8.20
2018-12-23T00:41:38.662Z,8.20
2018-12-23T00:44:09.248Z,8.10
2018-12-23T00:46:38.895Z,8.10
2018-12-23T00:49:07.854Z,8.10
2018-12-23T00:51:40.167Z,7.90
2018-12-23T00:54:08.882Z,8.00
2018-12-23T00:56:37.732Z,7.80
2018-12-23T00:59:06.171Z,7.80
2018-12-23T01:01:35.658Z,7.80
2018-12-23T01:04:05.356Z,7.80
2018-12-23T01:06:33.916Z,7.80
2018-12-23T01:09:03.297Z,7.90
2018-12-23T01:11:32.792Z,7.80
2018-12-23T01:17:11.902Z,7.70
2018-12-23T01:19:40.997Z,7.70
2018-12-23T01:22:10.596Z,7.80
2018-12-23T01:24:41.353Z,7.80
2018-12-23T01:27:11.400Z,7.90
2018-12-23T01:29:41.318Z,7.90
2018-12-23T01:32:11.668Z,7.90
2018-12-23T01:34:40.297Z,7.90
2018-12-23T01:37:09.398Z,7.80
2018-12-23T01:39:39.038Z,7.80
2018-12-23T01:42:07.385Z,7.80
2018-12-23T01:44:38.695Z,8.00
2018-12-23T01:47:08.330Z,7.90
2018-12-23T01:49:37.426Z,7.90
2018-12-23T01:52:06.580Z,7.90
2018-12-23T01:54:36.107Z,7.90
2018-12-23T01:57:05.152Z,7.90
2018-12-23T01:59:34.687Z,8.00
2018-12-23T02:02:04.332Z,7.90
2018-12-23T02:04:35.350Z,7.90
2018-12-23T02:07:04.678Z,8.00
2018-12-23T02:09:34.030Z,8.00
2018-12-23T02:14:40.638Z,8.00
2018-12-23T02:17:13.933Z,8.10
2018-12-23T02:19:43.744Z,8.00
2018-12-23T02:22:12.505Z,8.10
2018-12-23T02:24:41.262Z,8.10
2018-12-23T02:27:11.773Z,8.10
2018-12-23T02:29:41.700Z,8.10
2018-12-23T02:32:13.092Z,7.90
2018-12-23T02:34:44.517Z,7.90
2018-12-23T02:37:16.274Z,7.90
2018-12-23T02:39:46.923Z,7.90
2018-12-23T02:42:16.324Z,8.00
2018-12-23T02:44:47.513Z,7.90
2018-12-23T02:47:17.016Z,8.00
2018-12-23T02:49:48.312Z,8.00
2018-12-23T02:52:18.506Z,8.10
2018-12-23T02:54:47.687Z,8.10
2018-12-23T02:57:16.906Z,8.00
2018-12-23T02:59:47.554Z,8.00
2018-12-23T03:02:16.000Z,8.00
2018-12-23T03:04:44.735Z,8.00
2018-12-23T03:07:14.766Z,8.10
2018-12-23T03:09:44.593Z,8.00
2018-12-23T03:12:13.979Z,8.10
2018-12-23T03:14:43.320Z,8.00
2018-12-23T03:17:12.362Z,7.90
2018-12-23T03:19:41.000Z,7.90
2018-12-23T03:22:09.622Z,7.90
2018-12-23T03:24:42.534Z,7.90
2018-12-23T03:27:12.304Z,7.90
2018-12-23T03:29:42.604Z,7.90
2018-12-23T03:32:11.232Z,7.90
2018-12-23T03:34:42.182Z,7.90
2018-12-23T03:37:11.809Z,7.90
2018-12-23T03:39:40.956Z,7.80
2018-12-23T03:42:09.683Z,7.80
2018-12-23T03:44:38.834Z,7.90
2018-12-23T03:47:10.330Z,7.80
2018-12-23T03:49:42.664Z,7.90
2018-12-23T03:52:12.087Z,7.90
2018-12-23T03:54:41.229Z,8.00
2018-12-23T03:57:13.009Z,7.90
2018-12-23T03:59:41.920Z,8.00
2018-12-23T04:02:13.703Z,8.00
2018-12-23T04:04:45.310Z,8.00
2018-12-23T04:07:13.864Z,8.00
2018-12-23T04:09:42.410Z,7.90
2018-12-23T04:12:11.967Z,8.00
2018-12-23T04:14:40.719Z,8.00
2018-12-23T04:17:09.658Z,7.90
2018-12-23T04:19:38.257Z,8.00
2018-12-23T04:22:07.902Z,8.00
2018-12-23T04:24:37.494Z,8.10
2018-12-23T04:27:06.661Z,8.00
2018-12-23T04:29:35.462Z,8.00
2018-12-23T04:32:03.854Z,8.00
2018-12-23T04:34:32.352Z,8.00
2018-12-23T04:37:01.613Z,8.00
2018-12-23T04:39:31.763Z,8.10
2018-12-23T04:42:01.828Z,8.00
2018-12-23T04:44:31.519Z,8.00
2018-12-23T04:47:00.783Z,8.00
2018-12-23T04:49:29.666Z,7.90
2018-12-23T04:51:58.957Z,8.00
2018-12-23T04:54:37.747Z,7.90
2018-12-23T04:57:20.080Z,7.90
2018-12-23T05:00:07.732Z,8.00
2018-12-23T05:03:05.240Z,7.90
2018-12-23T05:05:44.639Z,8.00
2018-12-23T05:08:23.037Z,8.00
2018-12-23T05:16:58.916Z,7.90
2018-12-23T05:19:45.089Z,7.90
2018-12-23T05:22:15.981Z,7.90
2018-12-23T05:24:47.393Z,8.00
2018-12-23T05:27:18.933Z,8.00
2018-12-23T05:29:48.367Z,7.90
2018-12-23T05:32:16.941Z,8.00
2018-12-23T05:34:45.403Z,8.00
2018-12-23T05:37:13.759Z,8.00
2018-12-23T05:39:42.370Z,8.00
2018-12-23T05:42:11.891Z,7.90
2018-12-23T05:44:40.960Z,8.00
2018-12-23T05:47:09.502Z,7.90
2018-12-23T05:49:37.973Z,7.90
2018-12-23T05:52:06.643Z,7.90
2018-12-23T05:54:35.375Z,7.80
2018-12-23T05:57:05.601Z,7.90
2018-12-23T05:59:34.059Z,8.00
2018-12-23T06:02:03.395Z,8.00
2018-12-23T06:04:48.836Z,8.00
2018-12-23T06:07:17.604Z,8.00
2018-12-23T06:09:46.180Z,8.00
2018-12-23T06:12:14.950Z,8.00
2018-12-23T06:14:43.436Z,8.00
2018-12-23T06:17:11.983Z,7.90
2018-12-23T06:19:40.443Z,7.90
2018-12-23T06:22:08.877Z,7.90
2018-12-23T06:24:37.315Z,7.90
2018-12-23T06:27:05.865Z,7.90
2018-12-23T06:29:34.317Z,7.90
2018-12-23T06:32:03.033Z,7.90
2018-12-23T06:34:32.148Z,8.00
2018-12-23T06:37:09.774Z,7.90
2018-12-23T06:39:31.515Z,7.90
2018-12-23T06:42:00.697Z,7.90
2018-12-23T06:44:29.357Z,7.90
2018-12-23T06:46:58.522Z,7.90
2018-12-23T06:49:28.165Z,8.00
2018-12-23T06:51:56.687Z,8.00
2018-12-23T06:54:25.076Z,7.90
2018-12-23T06:56:53.557Z,7.90
2018-12-23T06:59:23.011Z,7.90
2018-12-23T07:01:52.069Z,8.10
2018-12-23T07:04:20.792Z,8.10
2018-12-23T07:06:49.519Z,8.00
2018-12-23T07:09:18.164Z,8.10
2018-12-23T07:11:46.651Z,8.10
2018-12-23T07:14:17.226Z,8.00
2018-12-23T07:16:45.787Z,8.00
2018-12-23T07:19:20.587Z,8.10
2018-12-23T07:21:49.225Z,8.20
2018-12-23T07:24:18.203Z,8.20
2018-12-23T07:26:46.614Z,8.20
2018-12-23T07:29:15.021Z,8.20
2018-12-23T07:31:43.566Z,8.30
2018-12-23T07:34:12.092Z,8.20
2018-12-23T07:36:49.265Z,8.20
2018-12-23T07:39:11.052Z,8.20
2018-12-23T07:41:39.657Z,8.10
2018-12-23T07:44:08.966Z,8.10
2018-12-23T07:46:37.485Z,8.00
2018-12-23T07:49:06.026Z,8.10
2018-12-23T07:51:34.407Z,8.10
2018-12-23T07:54:02.888Z,8.10
2018-12-23T07:56:31.761Z,8.10
2018-12-23T07:59:00.742Z,8.10
2018-12-23T08:01:29.620Z,8.00
2018-12-23T08:04:01.263Z,7.90
2018-12-23T08:06:30.205Z,7.80
2018-12-23T08:08:58.686Z,7.80
2018-12-23T08:11:28.043Z,7.80
2018-12-23T08:13:56.591Z,7.80
2018-12-23T08:16:27.252Z,7.80
2018-12-23T08:18:56.548Z,7.80
2018-12-23T08:21:27.286Z,7.90
2018-12-23T08:23:55.910Z,8.00
2018-12-23T08:26:24.451Z,8.00
2018-12-23T08:28:53.245Z,8.10
2018-12-23T08:31:22.050Z,8.10
2018-12-23T08:33:50.744Z,8.00
2018-12-23T08:36:19.202Z,7.90
2018-12-23T08:38:50.784Z,7.90
2018-12-23T08:41:20.131Z,8.00
2018-12-23T08:43:48.924Z,8.10
2018-12-23T08:46:17.417Z,8.10
2018-12-23T08:48:45.789Z,8.20
2018-12-23T08:51:14.215Z,8.20
2018-12-23T08:53:43.273Z,8.20
2018-12-23T08:56:11.675Z,8.30
2018-12-23T08:58:40.069Z,8.30
2018-12-23T09:01:09.109Z,8.30
2018-12-23T09:03:38.569Z,8.30
2018-12-23T09:06:07.117Z,8.30
2018-12-23T09:08:35.541Z,8.40
2018-12-23T09:11:04.105Z,8.40
2018-12-23T09:13:32.960Z,8.40
2018-12-23T09:16:01.411Z,8.30
2018-12-23T09:18:29.762Z,8.40
2018-12-23T09:20:58.541Z,8.40
2018-12-23T09:23:27.043Z,8.50
2018-12-23T09:25:55.605Z,8.50
2018-12-23T09:28:24.112Z,8.50
2018-12-23T09:30:52.545Z,8.60
2018-12-23T09:33:21.444Z,8.70
2018-12-23T09:35:50.153Z,8.70
2018-12-23T09:38:18.530Z,8.60
2018-12-23T09:40:48.228Z,8.70
2018-12-23T09:43:17.195Z,8.90
2018-12-23T09:45:45.979Z,9.00
2018-12-23T09:48:14.618Z,9.20
2018-12-23T09:50:47.273Z,9.20
2018-12-23T09:53:16.108Z,9.30
2018-12-23T09:55:44.739Z,9.40
2018-12-23T09:58:13.858Z,9.40
2018-12-23T10:00:42.380Z,9.50
2018-12-23T10:03:11.375Z,9.80
2018-12-23T10:05:39.736Z,9.80
2018-12-23T10:08:10.229Z,9.80
2018-12-23T10:10:39.464Z,9.80
2018-12-23T10:13:12.399Z,9.60
2018-12-23T10:15:40.885Z,9.60
2018-12-23T10:18:09.309Z,9.50
2018-12-23T10:20:38.795Z,9.50
2018-12-23T10:23:09.488Z,9.50
2018-12-23T10:25:38.551Z,9.60
2018-12-23T10:28:08.687Z,9.70
2018-12-23T10:30:37.163Z,9.90
2018-12-23T10:33:06.093Z,9.90
2018-12-23T10:35:34.836Z,10.10
2018-12-23T10:38:03.475Z,10.10
2018-12-23T10:40:33.590Z,10.10
2018-12-23T10:43:03.398Z,10.10
2018-12-23T10:45:32.301Z,10.10
2018-12-23T10:48:00.730Z,10.10
2018-12-23T10:50:29.089Z,10.10
2018-12-23T10:52:57.898Z,10.30
2018-12-23T10:55:26.970Z,10.40
2018-12-23T10:57:55.409Z,10.50
2018-12-23T11:00:23.826Z,10.40
2018-12-23T11:02:52.319Z,10.40
2018-12-23T11:05:21.462Z,10.30
2018-12-23T11:07:49.826Z,10.30
2018-12-23T11:10:22.720Z,10.30
2018-12-23T11:12:51.152Z,10.30
2018-12-23T11:15:19.600Z,10.30
2018-12-23T11:17:48.320Z,10.30
2018-12-23T11:20:17.048Z,10.30
2018-12-23T11:22:45.865Z,10.30
2018-12-23T11:25:14.644Z,10.50
2018-12-23T11:27:43.359Z,10.50
2018-12-23T11:30:11.915Z,10.50
2018-12-23T11:32:41.326Z,10.40
2018-12-23T11:35:11.570Z,10.40
2018-12-23T11:37:40.266Z,10.30
2018-12-23T11:40:09.891Z,10.50
2018-12-23T11:42:38.438Z,10.50
2018-12-23T11:45:07.123Z,10.50
2018-12-23T11:47:35.816Z,10.60
2018-12-23T11:50:04.990Z,10.40
2018-12-23T11:52:33.546Z,10.60
2018-12-23T11:55:05.000Z,10.60
2018-12-23T11:57:38.043Z,10.50
2018-12-23T12:00:07.710Z,10.40
2018-12-23T12:05:11.461Z,10.50
2018-12-23T12:07:40.788Z,10.60
2018-12-23T12:10:11.001Z,10.40
2018-12-23T12:12:40.125Z,10.40
2018-12-23T12:15:10.030Z,10.60
2018-12-23T12:17:40.134Z,10.50
2018-12-23T12:20:10.441Z,10.40
2018-12-23T12:22:38.928Z,10.40
2018-12-23T12:25:08.653Z,10.60
2018-12-23T12:27:37.523Z,10.40
2018-12-23T12:30:06.564Z,10.40
2018-12-23T12:32:35.197Z,10.40
2018-12-23T12:35:04.204Z,10.40
2018-12-23T12:37:32.671Z,10.50
2018-12-23T12:40:04.006Z,10.40
2018-12-23T12:42:34.098Z,10.40
2018-12-23T12:45:03.585Z,10.40
2018-12-23T12:47:33.031Z,10.40
2018-12-23T12:50:01.481Z,10.40
2018-12-23T12:52:30.454Z,10.30
2018-12-23T12:55:00.254Z,10.20
2018-12-23T12:57:29.849Z,10.20
2018-12-23T12:59:58.175Z,10.30
2018-12-23T13:02:27.079Z,10.40
2018-12-23T13:04:55.439Z,10.40
2018-12-23T13:07:23.964Z,10.40
2018-12-23T13:09:52.564Z,10.50
2018-12-23T13:12:21.546Z,10.50
2018-12-23T13:14:50.335Z,10.50
2018-12-23T13:17:18.694Z,10.30
2018-12-23T13:19:47.337Z,10.30
2018-12-23T13:22:18.976Z,10.10
2018-12-23T13:24:47.607Z,10.00
2018-12-23T13:27:16.196Z,10.10
2018-12-23T13:29:47.370Z,10.10
2018-12-23T13:32:16.921Z,10.10
2018-12-23T13:34:46.329Z,10.10
2018-12-23T13:37:14.719Z,10.10
2018-12-23T13:39:43.390Z,10.00
2018-12-23T13:42:21.567Z,10.10
2018-12-23T13:45:03.921Z,10.10
2018-12-23T13:47:49.415Z,10.00
2018-12-23T13:50:59.254Z,10.00
2018-12-23T13:54:12.774Z,10.00
2018-12-23T13:57:25.949Z,9.90
2018-12-23T14:00:12.906Z,9.90
2018-12-23T14:02:52.025Z,9.90
2018-12-23T14:06:06.073Z,9.80
2018-12-23T14:08:56.017Z,9.70
2018-12-23T14:11:37.590Z,9.70
2018-12-23T14:14:06.532Z,9.60
2018-12-23T14:16:37.216Z,9.40
2018-12-23T14:19:05.842Z,9.20
2018-12-23T14:21:34.427Z,9.00
2018-12-23T14:24:03.055Z,8.90
2018-12-23T14:26:32.289Z,8.90
2018-12-23T14:29:00.741Z,9.00
2018-12-23T14:31:29.178Z,8.90
2018-12-23T14:33:57.861Z,8.60
2018-12-23T14:36:26.901Z,8.60
2018-12-23T14:38:55.637Z,8.40
2018-12-23T14:41:24.310Z,8.30
2018-12-23T14:46:42.593Z,8.30
2018-12-23T14:49:10.975Z,8.30
2018-12-23T14:51:39.641Z,8.20
2018-12-23T14:54:08.430Z,8.20
2018-12-23T14:56:36.959Z,8.20
2018-12-23T14:59:05.462Z,8.10
2018-12-23T15:01:33.926Z,8.10
2018-12-23T15:04:02.303Z,8.00
2018-12-23T15:06:30.682Z,8.00
2018-12-23T15:08:59.857Z,8.00
2018-12-23T15:11:29.743Z,8.00
2018-12-23T15:13:58.265Z,8.00
2018-12-23T15:16:29.264Z,7.90
2018-12-23T15:19:00.556Z,7.90
2018-12-23T15:21:29.624Z,7.90
2018-12-23T15:24:00.257Z,7.90
2018-12-23T15:26:34.862Z,7.90
2018-12-23T15:29:03.578Z,7.90
2018-12-23T15:31:33.116Z,8.00
2018-12-23T15:34:02.217Z,8.00
2018-12-23T15:36:31.116Z,7.90
2018-12-23T15:38:59.881Z,7.80
2018-12-23T15:41:29.903Z,7.90
2018-12-23T15:43:59.086Z,7.90
2018-12-23T15:46:27.711Z,7.90
2018-12-23T15:48:57.985Z,7.90
2018-12-23T15:51:28.634Z,7.90
2018-12-23T15:54:03.377Z,7.90
2018-12-23T15:56:32.053Z,8.00
2018-12-23T15:59:01.459Z,8.10
2018-12-23T16:01:30.928Z,8.20
2018-12-23T16:04:01.141Z,8.20
2018-12-23T16:06:30.301Z,8.10
2018-12-23T16:08:59.735Z,8.20
2018-12-23T16:11:29.642Z,8.20
2018-12-23T16:13:58.748Z,8.20
2018-12-23T16:16:27.857Z,8.20
2018-12-23T16:18:56.396Z,8.20
2018-12-23T16:21:25.207Z,8.20
2018-12-23T16:23:55.989Z,8.00
2018-12-23T16:26:25.987Z,8.00
2018-12-23T16:28:57.593Z,7.90
2018-12-23T16:31:27.501Z,8.00
2018-12-23T16:33:58.213Z,7.90
2018-12-23T16:36:35.423Z,7.90
2018-12-23T16:39:09.928Z,7.90
2018-12-23T16:41:40.640Z,7.90
2018-12-23T16:44:09.603Z,8.00
2018-12-23T16:46:42.149Z,8.00
2018-12-23T16:49:11.636Z,8.00
2018-12-23T16:51:40.306Z,7.90
2018-12-23T16:54:13.241Z,7.90
2018-12-23T16:56:42.350Z,7.90
2018-12-23T16:59:11.181Z,7.80
2018-12-23T17:01:40.185Z,7.80
2018-12-23T17:04:08.833Z,7.80
2018-12-23T17:06:37.334Z,8.10
2018-12-23T17:09:09.090Z,8.10
2018-12-23T17:11:38.669Z,8.00
2018-12-23T17:14:07.358Z,7.90
2018-12-23T17:16:36.361Z,7.90
2018-12-23T17:19:07.262Z,7.90
2018-12-23T17:21:36.951Z,7.90
2018-12-23T17:24:07.995Z,7.80
2018-12-23T17:26:36.508Z,7.90
2018-12-23T17:29:06.391Z,7.90
2018-12-23T17:31:35.672Z,7.90
2018-12-23T17:34:04.038Z,8.00
2018-12-23T17:36:32.448Z,8.00
2018-12-23T17:39:01.010Z,8.10
2018-12-23T17:41:29.481Z,8.20
2018-12-23T17:43:58.895Z,8.10
2018-12-23T17:46:27.412Z,8.20
2018-12-23T17:49:02.935Z,8.30
2018-12-23T17:51:32.343Z,8.40
2018-12-23T17:54:05.656Z,8.40
2018-12-23T17:56:34.954Z,8.50
2018-12-23T17:59:03.841Z,8.40
2018-12-23T18:01:32.291Z,8.50
2018-12-23T18:04:02.445Z,8.60
2018-12-23T18:06:31.498Z,8.60
2018-12-23T18:08:59.984Z,8.60
2018-12-23T18:11:28.515Z,8.70
2018-12-23T18:13:57.179Z,8.70
2018-12-23T18:16:26.137Z,8.70
2018-12-23T18:18:55.215Z,8.70
2018-12-23T18:21:23.884Z,8.80
2018-12-23T18:23:53.111Z,8.80
2018-12-23T18:26:21.771Z,8.90
2018-12-23T18:28:50.297Z,8.90
2018-12-23T18:31:20.024Z,8.90
2018-12-23T18:33:48.811Z,9.00
2018-12-23T18:36:19.430Z,9.00
2018-12-23T18:38:49.819Z,9.10
2018-12-23T18:41:18.552Z,9.20
2018-12-23T18:43:48.028Z,9.30
2018-12-23T18:46:16.601Z,9.50
2018-12-23T18:48:47.640Z,9.60
2018-12-23T18:51:16.534Z,9.50
2018-12-23T18:53:45.173Z,9.60
2018-12-23T18:56:13.878Z,9.60
2018-12-23T18:58:42.472Z,9.70
2018-12-23T19:01:11.521Z,9.70
2018-12-23T19:03:40.185Z,9.80
2018-12-23T19:06:11.782Z,9.70
2018-12-23T19:09:06.354Z,9.70
2018-12-23T19:12:51.051Z,9.80
2018-12-23T19:17:35.832Z,9.80
2018-12-23T19:20:18.750Z,9.70
2018-12-23T19:26:11.458Z,9.70
2018-12-23T19:28:49.203Z,9.70
2018-12-23T19:31:36.913Z,9.80
2018-12-23T19:34:48.726Z,9.80
2018-12-23T19:38:35.857Z,9.70
2018-12-23T19:41:20.608Z,9.80
2018-12-23T19:45:05.477Z,9.90
2018-12-23T19:48:56.445Z,9.90
2018-12-23T19:52:14.745Z,9.90
2018-12-23T19:55:55.564Z,10.00
2018-12-23T19:59:12.017Z,10.00
2018-12-23T20:02:01.154Z,10.10
2018-12-23T20:04:53.544Z,10.10
2018-12-23T20:07:33.229Z,10.10
2018-12-23T20:10:49.622Z,10.20
2018-12-23T20:13:38.896Z,10.20
2018-12-23T20:16:22.598Z,10.20
2018-12-23T20:21:12.957Z,10.20
2018-12-23T20:24:26.449Z,10.10
2018-12-23T20:28:08.997Z,10.10
2018-12-23T20:32:53.341Z,10.10
2018-12-23T20:35:31.755Z,10.20
2018-12-23T20:40:35.669Z,10.10
2018-12-23T20:43:22.381Z,10.20
2018-12-23T20:48:12.196Z,10.20
2018-12-23T20:50:52.585Z,10.20
2018-12-23T20:55:42.435Z,10.20
2018-12-23T20:59:20.757Z,10.30
2018-12-23T21:02:00.886Z,10.30
2018-12-23T21:04:49.131Z,10.40
2018-12-23T21:08:34.496Z,10.40
2018-12-23T21:12:23.771Z,10.40
2018-12-23T21:15:03.625Z,10.40
2018-12-23T21:18:54.855Z,10.50
2018-12-23T21:21:33.699Z,10.50
2018-12-23T21:26:50.486Z,10.50
2018-12-23T21:31:38.797Z,10.40
2018-12-23T21:34:30.592Z,10.40
2018-12-23T21:37:21.493Z,10.50
2018-12-23T21:40:07.973Z,10.60
2018-12-23T21:44:49.273Z,10.50
2018-12-23T21:47:29.410Z,10.60
2018-12-23T21:50:12.059Z,10.60
2018-12-23T21:52:59.509Z,10.60
2018-12-23T21:55:56.254Z,10.60
2018-12-23T21:58:43.370Z,10.70
2018-12-23T22:02:29.451Z,10.70
2018-12-23T22:05:14.115Z,10.70
2018-12-23T22:11:07.074Z,10.70
2018-12-23T22:13:36.970Z,10.70
2018-12-23T22:16:06.837Z,10.70
2018-12-23T22:18:36.639Z,10.80
2018-12-23T22:21:06.134Z,10.80
2018-12-23T22:23:35.118Z,10.80
2018-12-23T22:26:04.459Z,10.80
2018-12-23T22:28:33.927Z,10.90
2018-12-23T22:31:04.624Z,10.90
2018-12-23T22:33:35.204Z,10.90
2018-12-23T22:36:03.823Z,10.90
2018-12-23T22:38:32.408Z,11.00
2018-12-23T22:41:06.094Z,11.00
2018-12-23T22:43:35.062Z,11.00
2018-12-23T22:46:04.982Z,10.90
2018-12-23T22:48:33.919Z,10.80
2018-12-23T22:51:02.956Z,10.80
2018-12-23T22:53:31.568Z,10.80
2018-12-23T22:56:00.347Z,10.80
2018-12-23T22:58:29.868Z,10.90
2018-12-23T23:00:59.684Z,10.90
2018-12-23T23:03:29.420Z,10.90
2018-12-23T23:06:00.327Z,11.00
2018-12-23T23:08:29.648Z,11.00
2018-12-23T23:11:00.465Z,11.00
2018-12-23T23:13:30.239Z,11.00
2018-12-23T23:15:59.837Z,11.00
2018-12-23T23:18:28.422Z,11.10
2018-12-23T23:20:57.489Z,11.10
2018-12-23T23:23:26.584Z,11.10
2018-12-23T23:25:56.028Z,11.10
2018-12-23T23:28:24.905Z,11.10
2018-12-23T23:30:53.693Z,11.10
2018-12-23T23:33:24.208Z,11.20
2018-12-23T23:35:53.594Z,11.20
2018-12-23T23:38:22.429Z,11.20
2018-12-23T23:40:50.888Z,11.20
2018-12-23T23:43:21.366Z,11.30
2018-12-23T23:45:49.951Z,11.30
2018-12-23T23:48:18.738Z,11.20
2018-12-23T23:50:48.352Z,11.30
2018-12-23T23:53:17.152Z,11.30
2018-12-23T23:55:46.041Z,11.30
2018-12-23T23:58:14.875Z,11.30
